sensor_id;sensor_type;location;lat;lon;timestamp;pressure;altitude;pressure_sealevel;temperature;humidity
49216;BME280;45943;53.148;8.204;2023-02-21T00:01:34;101587.78;;;12.05;100.00
49216;BME280;45943;53.148;8.204;2023-02-21T00:04:19;101590.47;;;12.05;100.00
49216;BME280;45943;53.148;8.204;2023-02-21T00:07:03;101589.38;;;12.07;100.00
49216;BME280;45943;53.148;8.204;2023-02-21T00:09:48;101603.38;;;12.13;100.00
49216;BME280;45943;53.148;8.204;2023-02-21T00:12:32;101609.75;;;11.99;100.00
49216;BME280;45943;53.148;8.204;2023-02-21T00:15:17;101598.56;;;12.05;100.00
49216;BME280;45943;53.148;8.204;2023-02-21T00:18:01;101602.47;;;12.01;100.00
49216;BME280;45943;53.148;8.204;2023-02-21T00:20:45;101595.13;;;12.03;100.00
49216;BME280;45943;53.148;8.204;2023-02-21T00:23:33;101592.06;;;12.07;100.00
49216;BME280;45943;53.148;8.204;2023-02-21T00:26:19;101596.88;;;12.15;100.00
49216;BME280;45943;53.148;8.204;2023-02-21T00:29:05;101603.88;;;12.18;100.00
49216;BME280;45943;53.148;8.204;2023-02-21T00:31:50;101604.28;;;12.24;100.00
49216;BME280;45943;53.148;8.204;2023-02-21T00:34:36;101609.28;;;12.29;100.00
49216;BME280;45943;53.148;8.204;2023-02-21T00:37:21;101610.38;;;12.26;100.00
49216;BME280;45943;53.148;8.204;2023-02-21T00:40:05;101602.69;;;12.22;100.00
49216;BME280;45943;53.148;8.204;2023-02-21T00:42:50;101615.88;;;12.25;100.00
49216;BME280;45943;53.148;8.204;2023-02-21T00:45:34;101608.44;;;12.28;100.00
49216;BME280;45943;53.148;8.204;2023-02-21T00:48:20;101603.44;;;12.35;100.00
49216;BME280;45943;53.148;8.204;2023-02-21T00:51:05;101606.75;;;12.39;100.00
49216;BME280;45943;53.148;8.204;2023-02-21T00:53:49;101599.22;;;12.44;100.00
49216;BME280;45943;53.148;8.204;2023-02-21T00:56:34;101609.19;;;12.30;100.00
49216;BME280;45943;53.148;8.204;2023-02-21T00:59:19;101604.69;;;12.31;100.00
49216;BME280;45943;53.148;8.204;2023-02-21T01:02:03;101601.41;;;12.15;100.00
49216;BME280;45943;53.148;8.204;2023-02-21T01:04:48;101605.88;;;12.27;100.00
49216;BME280;45943;53.148;8.204;2023-02-21T01:07:33;101615.44;;;12.31;100.00
49216;BME280;45943;53.148;8.204;2023-02-21T01:10:17;101619.16;;;12.17;100.00
49216;BME280;45943;53.148;8.204;2023-02-21T01:13:01;101614.63;;;12.18;100.00
49216;BME280;45943;53.148;8.204;2023-02-21T01:15:46;101629.59;;;12.09;100.00
49216;BME280;45943;53.148;8.204;2023-02-21T01:18:30;101618.81;;;12.22;100.00
49216;BME280;45943;53.148;8.204;2023-02-21T01:21:16;101618.56;;;12.25;100.00
49216;BME280;45943;53.148;8.204;2023-02-21T01:24:02;101633.34;;;12.19;100.00
49216;BME280;45943;53.148;8.204;2023-02-21T01:26:47;101632.84;;;12.14;100.00
49216;BME280;45943;53.148;8.204;2023-02-21T01:29:32;101625.16;;;12.21;100.00
49216;BME280;45943;53.148;8.204;2023-02-21T01:32:16;101631.41;;;12.21;100.00
49216;BME280;45943;53.148;8.204;2023-02-21T01:35:00;101622.94;;;12.15;100.00
49216;BME280;45943;53.148;8.204;2023-02-21T01:37:45;101626.59;;;12.14;100.00
49216;BME280;45943;53.148;8.204;2023-02-21T01:40:29;101632.59;;;12.17;100.00
49216;BME280;45943;53.148;8.204;2023-02-21T01:43:19;101636.78;;;12.21;100.00
49216;BME280;45943;53.148;8.204;2023-02-21T01:46:07;101634.09;;;12.21;100.00
49216;BME280;45943;53.148;8.204;2023-02-21T01:48:54;101643.34;;;12.17;100.00
49216;BME280;45943;53.148;8.204;2023-02-21T01:51:41;101636.72;;;12.10;100.00
49216;BME280;45943;53.148;8.204;2023-02-21T01:54:29;101637.34;;;12.14;100.00
49216;BME280;45943;53.148;8.204;2023-02-21T01:57:17;101627.56;;;12.13;100.00
49216;BME280;45943;53.148;8.204;2023-02-21T02:00:04;101618.41;;;12.15;100.00
49216;BME280;45943;53.148;8.204;2023-02-21T02:02:52;101623.50;;;12.07;100.00
49216;BME280;45943;53.148;8.204;2023-02-21T02:05:53;101620.59;;;12.10;100.00
49216;BME280;45943;53.148;8.204;2023-02-21T02:08:39;101614.38;;;12.10;100.00
49216;BME280;45943;53.148;8.204;2023-02-21T02:11:34;101620.34;;;12.13;100.00
49216;BME280;45943;53.148;8.204;2023-02-21T02:14:57;101617.66;;;12.13;100.00
49216;BME280;45943;53.148;8.204;2023-02-21T02:17:56;101610.47;;;12.14;100.00
49216;BME280;45943;53.148;8.204;2023-02-21T02:29:07;101615.09;;;12.12;100.00
49216;BME280;45943;53.148;8.204;2023-02-21T02:31:57;101628.00;;;12.06;100.00
49216;BME280;45943;53.148;8.204;2023-02-21T02:35:08;101636.09;;;12.06;100.00
49216;BME280;45943;53.148;8.204;2023-02-21T02:37:50;101626.91;;;12.09;100.00
49216;BME280;45943;53.148;8.204;2023-02-21T02:43:08;101631.34;;;12.10;100.00
49216;BME280;45943;53.148;8.204;2023-02-21T02:48:49;101643.06;;;12.09;100.00
49216;BME280;45943;53.148;8.204;2023-02-21T02:51:38;101647.50;;;12.10;100.00
49216;BME280;45943;53.148;8.204;2023-02-21T02:54:04;101638.56;;;12.10;100.00
49216;BME280;45943;53.148;8.204;2023-02-21T02:56:30;101644.28;;;12.05;100.00
49216;BME280;45943;53.148;8.204;2023-02-21T02:59:00;101639.50;;;12.09;100.00
49216;BME280;45943;53.148;8.204;2023-02-21T03:10:07;101651.41;;;11.93;100.00
49216;BME280;45943;53.148;8.204;2023-02-21T03:15:27;101654.53;;;12.00;100.00
49216;BME280;45943;53.148;8.204;2023-02-21T03:18:17;101659.91;;;12.00;100.00
49216;BME280;45943;53.148;8.204;2023-02-21T03:20:45;101649.34;;;11.97;100.00
49216;BME280;45943;53.148;8.204;2023-02-21T03:23:16;101652.69;;;12.00;100.00
49216;BME280;45943;53.148;8.204;2023-02-21T03:25:44;101652.50;;;11.91;100.00
49216;BME280;45943;53.148;8.204;2023-02-21T03:28:12;101658.09;;;11.88;100.00
49216;BME280;45943;53.148;8.204;2023-02-21T03:30:42;101650.78;;;11.90;100.00
49216;BME280;45943;53.148;8.204;2023-02-21T03:33:11;101661.19;;;11.94;100.00
49216;BME280;45943;53.148;8.204;2023-02-21T03:35:37;101664.22;;;11.90;100.00
49216;BME280;45943;53.148;8.204;2023-02-21T03:38:03;101658.75;;;11.91;100.00
49216;BME280;45943;53.148;8.204;2023-02-21T03:40:30;101654.72;;;11.97;100.00
49216;BME280;45943;53.148;8.204;2023-02-21T03:42:58;101661.19;;;11.94;100.00
49216;BME280;45943;53.148;8.204;2023-02-21T03:45:26;101657.66;;;11.94;100.00
49216;BME280;45943;53.148;8.204;2023-02-21T03:47:52;101666.13;;;12.00;100.00
49216;BME280;45943;53.148;8.204;2023-02-21T03:50:18;101661.50;;;12.02;100.00
49216;BME280;45943;53.148;8.204;2023-02-21T03:52:44;101660.84;;;11.99;100.00
49216;BME280;45943;53.148;8.204;2023-02-21T03:55:10;101659.13;;;11.98;100.00
49216;BME280;45943;53.148;8.204;2023-02-21T03:57:36;101669.16;;;11.96;100.00
49216;BME280;45943;53.148;8.204;2023-02-21T04:00:02;101666.56;;;11.94;100.00
49216;BME280;45943;53.148;8.204;2023-02-21T04:02:29;101661.19;;;11.94;100.00
49216;BME280;45943;53.148;8.204;2023-02-21T04:04:55;101668.28;;;11.95;100.00
49216;BME280;45943;53.148;8.204;2023-02-21T04:07:21;101663.34;;;11.89;100.00
49216;BME280;45943;53.148;8.204;2023-02-21T04:09:47;101662.59;;;11.87;100.00
49216;BME280;45943;53.148;8.204;2023-02-21T04:12:13;101668.91;;;11.99;100.00
49216;BME280;45943;53.148;8.204;2023-02-21T04:14:40;101663.53;;;11.99;100.00
49216;BME280;45943;53.148;8.204;2023-02-21T04:17:06;101655.47;;;11.99;100.00
49216;BME280;45943;53.148;8.204;2023-02-21T04:19:32;101666.00;;;12.02;100.00
49216;BME280;45943;53.148;8.204;2023-02-21T04:21:58;101667.72;;;12.03;100.00
49216;BME280;45943;53.148;8.204;2023-02-21T04:24:24;101661.19;;;11.94;100.00
49216;BME280;45943;53.148;8.204;2023-02-21T04:26:50;101658.63;;;11.93;100.00
49216;BME280;45943;53.148;8.204;2023-02-21T04:29:17;101664.19;;;12.02;100.00
49216;BME280;45943;53.148;8.204;2023-02-21T04:31:43;101669.44;;;12.04;100.00
49216;BME280;45943;53.148;8.204;2023-02-21T04:34:09;101659.97;;;11.98;100.00
49216;BME280;45943;53.148;8.204;2023-02-21T04:36:35;101657.28;;;11.98;100.00
49216;BME280;45943;53.148;8.204;2023-02-21T04:39:03;101660.63;;;12.02;100.00
49216;BME280;45943;53.148;8.204;2023-02-21T04:41:29;101658.44;;;12.07;100.00
49216;BME280;45943;53.148;8.204;2023-02-21T04:43:55;101663.31;;;12.02;100.00
49216;BME280;45943;53.148;8.204;2023-02-21T04:46:21;101669.44;;;12.04;100.00
49216;BME280;45943;53.148;8.204;2023-02-21T04:48:48;101658.56;;;12.05;100.00
49216;BME280;45943;53.148;8.204;2023-02-21T04:51:17;101660.28;;;12.06;100.00
49216;BME280;45943;53.148;8.204;2023-02-21T04:53:46;101660.16;;;12.08;100.00
49216;BME280;45943;53.148;8.204;2023-02-21T04:56:13;101662.78;;;12.10;100.00
49216;BME280;45943;53.148;8.204;2023-02-21T04:58:41;101652.56;;;12.02;100.00
49216;BME280;45943;53.148;8.204;2023-02-21T05:01:09;101651.13;;;12.09;100.00
49216;BME280;45943;53.148;8.204;2023-02-21T05:03:35;101648.56;;;12.07;100.00
49216;BME280;45943;53.148;8.204;2023-02-21T05:06:01;101647.06;;;12.03;100.00
49216;BME280;45943;53.148;8.204;2023-02-21T05:08:27;101651.47;;;12.04;100.00
49216;BME280;45943;53.148;8.204;2023-02-21T05:10:53;101642.56;;;12.04;100.00
49216;BME280;45943;53.148;8.204;2023-02-21T05:13:19;101647.31;;;12.00;100.00
49216;BME280;45943;53.148;8.204;2023-02-21T05:15:46;101654.28;;;12.03;100.00
49216;BME280;45943;53.148;8.204;2023-02-21T05:18:12;101651.47;;;12.04;100.00
49216;BME280;45943;53.148;8.204;2023-02-21T05:20:38;101650.50;;;12.05;100.00
49216;BME280;45943;53.148;8.204;2023-02-21T05:23:04;101650.19;;;11.97;100.00
49216;BME280;45943;53.148;8.204;2023-02-21T05:25:30;101641.16;;;11.98;100.00
49216;BME280;45943;53.148;8.204;2023-02-21T05:27:55;101649.34;;;11.97;100.00
49216;BME280;45943;53.148;8.204;2023-02-21T05:30:22;101648.06;;;12.02;100.00
49216;BME280;45943;53.148;8.204;2023-02-21T05:32:51;101648.38;;;11.98;100.00
49216;BME280;45943;53.148;8.204;2023-02-21T05:35:17;101652.16;;;11.95;100.00
49216;BME280;45943;53.148;8.204;2023-02-21T05:37:43;101650.09;;;11.99;100.00
49216;BME280;45943;53.148;8.204;2023-02-21T05:40:09;101656.84;;;12.04;100.00
49216;BME280;45943;53.148;8.204;2023-02-21T05:42:41;101650.75;;;12.02;100.00
49216;BME280;45943;53.148;8.204;2023-02-21T05:45:07;101654.41;;;12.01;100.00
49216;BME280;45943;53.148;8.204;2023-02-21T05:47:34;101660.63;;;12.02;100.00
49216;BME280;45943;53.148;8.204;2023-02-21T05:50:00;101660.84;;;11.99;100.00
49216;BME280;45943;53.148;8.204;2023-02-21T05:52:26;101666.13;;;12.00;100.00
49216;BME280;45943;53.148;8.204;2023-02-21T05:54:52;101657.72;;;12.05;100.00
49216;BME280;45943;53.148;8.204;2023-02-21T05:57:18;101655.16;;;12.03;100.00
49216;BME280;45943;53.148;8.204;2023-02-21T05:59:45;101657.72;;;12.05;100.00
49216;BME280;45943;53.148;8.204;2023-02-21T06:02:13;101656.22;;;12.01;100.00
49216;BME280;45943;53.148;8.204;2023-02-21T06:04:39;101661.50;;;12.02;100.00
49216;BME280;45943;53.148;8.204;2023-02-21T06:07:05;101657.09;;;11.89;100.00
49216;BME280;45943;53.148;8.204;2023-02-21T06:09:31;101653.88;;;11.96;100.00
49216;BME280;45943;53.148;8.204;2023-02-21T06:11:57;101654.53;;;12.00;100.00
49216;BME280;45943;53.148;8.204;2023-02-21T06:14:24;101661.81;;;11.98;100.00
49216;BME280;45943;53.148;8.204;2023-02-21T06:16:50;101649.66;;;12.05;100.00
49216;BME280;45943;53.148;8.204;2023-02-21T06:19:16;101650.75;;;12.02;100.00
49216;BME280;45943;53.148;8.204;2023-02-21T06:21:43;101640.19;;;11.99;100.00
49216;BME280;45943;53.148;8.204;2023-02-21T06:24:10;101644.50;;;12.02;100.00
49216;BME280;45943;53.148;8.204;2023-02-21T06:26:36;101646.53;;;11.98;100.00
49216;BME280;45943;53.148;8.204;2023-02-21T06:29:03;101652.03;;;11.97;100.00
49216;BME280;45943;53.148;8.204;2023-02-21T06:31:30;101651.06;;;11.98;100.00
49216;BME280;45943;53.148;8.204;2023-02-21T06:33:55;101657.09;;;12.01;100.00
49216;BME280;45943;53.148;8.204;2023-02-21T06:36:23;101654.16;;;12.04;100.00
49216;BME280;45943;53.148;8.204;2023-02-21T06:38:51;101653.53;;;12.01;100.00
49216;BME280;45943;53.148;8.204;2023-02-21T06:41:21;101655.03;;;12.05;100.00
49216;BME280;45943;53.148;8.204;2023-02-21T06:43:49;101665.91;;;12.03;100.00
49216;BME280;45943;53.148;8.204;2023-02-21T06:46:17;101660.75;;;12.00;100.00
49216;BME280;45943;53.148;8.204;2023-02-21T06:48:44;101657.09;;;11.89;100.00
49216;BME280;45943;53.148;8.204;2023-02-21T06:51:10;101672.81;;;11.95;100.00
49216;BME280;45943;53.148;8.204;2023-02-21T06:53:39;101668.69;;;12.02;100.00
49216;BME280;45943;53.148;8.204;2023-02-21T06:56:06;101666.75;;;12.04;100.00
49216;BME280;45943;53.148;8.204;2023-02-21T06:58:32;101676.34;;;11.95;100.00
49216;BME280;45943;53.148;8.204;2023-02-21T07:00:58;101673.78;;;11.94;100.00
49216;BME280;45943;53.148;8.204;2023-02-21T07:03:24;101682.25;;;12.00;100.00
49216;BME280;45943;53.148;8.204;2023-02-21T07:05:50;101684.09;;;12.00;100.00
49216;BME280;45943;53.148;8.204;2023-02-21T07:08:16;101686.31;;;12.06;100.00
49216;BME280;45943;53.148;8.204;2023-02-21T07:10:42;101688.03;;;12.07;100.00
49216;BME280;45943;53.148;8.204;2023-02-21T07:13:08;101694.50;;;12.04;100.00
49216;BME280;45943;53.148;8.204;2023-02-21T07:15:34;101694.38;;;12.06;100.00
49216;BME280;45943;53.148;8.204;2023-02-21T07:18:00;101696.09;;;12.07;100.00
49216;BME280;45943;53.148;8.204;2023-02-21T07:20:26;101702.34;;;12.07;100.00
49216;BME280;45943;53.148;8.204;2023-02-21T07:22:52;101690.59;;;12.09;100.00
49216;BME280;45943;53.148;8.204;2023-02-21T07:25:19;101698.34;;;12.13;100.00
49216;BME280;45943;53.148;8.204;2023-02-21T07:27:47;101699.22;;;12.14;100.00
49216;BME280;45943;53.148;8.204;2023-02-21T07:30:13;101699.22;;;12.14;100.00
49216;BME280;45943;53.148;8.204;2023-02-21T07:32:41;101701.91;;;12.14;100.00
49216;BME280;45943;53.148;8.204;2023-02-21T07:35:07;101711.69;;;12.15;100.00
49216;BME280;45943;53.148;8.204;2023-02-21T07:37:33;101707.91;;;12.17;100.00
49216;BME280;45943;53.148;8.204;2023-02-21T07:39:59;101702.03;;;12.12;100.00
49216;BME280;45943;53.148;8.204;2023-02-21T07:42:25;101699.03;;;12.04;100.00
49216;BME280;45943;53.148;8.204;2023-02-21T07:44:55;101706.22;;;12.03;100.00
49216;BME280;45943;53.148;8.204;2023-02-21T07:47:22;101705.69;;;11.98;100.00
49216;BME280;45943;53.148;8.204;2023-02-21T07:49:49;101705.63;;;12.00;100.00
49216;BME280;45943;53.148;8.204;2023-02-21T07:52:16;101709.34;;;12.10;100.00
49216;BME280;45943;53.148;8.204;2023-02-21T07:54:42;101723.41;;;12.14;100.00
49216;BME280;45943;53.148;8.204;2023-02-21T07:57:08;101712.66;;;12.14;100.00
49216;BME280;45943;53.148;8.204;2023-02-21T07:59:34;101719.13;;;12.11;100.00
49216;BME280;45943;53.148;8.204;2023-02-21T08:02:00;101731.25;;;12.17;100.00
49216;BME280;45943;53.148;8.204;2023-02-21T08:04:27;101728.44;;;12.18;100.00
49216;BME280;45943;53.148;8.204;2023-02-21T08:06:57;101730.94;;;12.21;100.00
49216;BME280;45943;53.148;8.204;2023-02-21T08:09:24;101736.94;;;12.25;100.00
49216;BME280;45943;53.148;8.204;2023-02-21T08:11:50;101748.66;;;12.24;100.00
49216;BME280;45943;53.148;8.204;2023-02-21T08:14:16;101741.81;;;12.20;100.00
49216;BME280;45943;53.148;8.204;2023-02-21T08:16:42;101756.31;;;12.17;100.00
49216;BME280;45943;53.148;8.204;2023-02-21T08:19:08;101754.84;;;12.13;100.00
49216;BME280;45943;53.148;8.204;2023-02-21T08:21:34;101749.25;;;12.03;100.00
49216;BME280;45943;53.148;8.204;2023-02-21T08:24:00;101757.09;;;12.19;100.00
49216;BME280;45943;53.148;8.204;2023-02-21T08:26:26;101756.19;;;12.19;100.00
49216;BME280;45943;53.148;8.204;2023-02-21T08:28:52;101755.88;;;12.23;100.00
49216;BME280;45943;53.148;8.204;2023-02-21T08:31:18;101766.63;;;12.23;100.00
49216;BME280;45943;53.148;8.204;2023-02-21T08:33:44;101756.13;;;12.20;100.00
49216;BME280;45943;53.148;8.204;2023-02-21T08:36:10;101754.91;;;12.24;100.00
49216;BME280;45943;53.148;8.204;2023-02-21T08:38:37;101761.69;;;12.30;100.00
49216;BME280;45943;53.148;8.204;2023-02-21T08:41:03;101762.63;;;12.29;100.00
49216;BME280;45943;53.148;8.204;2023-02-21T08:43:31;101766.75;;;12.22;100.00
49216;BME280;45943;53.148;8.204;2023-02-21T08:45:57;101760.09;;;12.15;100.00
49216;BME280;45943;53.148;8.204;2023-02-21T08:48:23;101765.66;;;12.24;100.00
49216;BME280;45943;53.148;8.204;2023-02-21T08:50:49;101763.72;;;12.26;100.00
49216;BME280;45943;53.148;8.204;2023-02-21T08:53:18;101766.09;;;12.31;100.00
49216;BME280;45943;53.148;8.204;2023-02-21T08:55:45;101768.66;;;12.32;100.00
49216;BME280;45943;53.148;8.204;2023-02-21T08:58:11;101770.50;;;12.32;100.00
49216;BME280;45943;53.148;8.204;2023-02-21T09:00:38;101762.63;;;12.29;100.00
49216;BME280;45943;53.148;8.204;2023-02-21T09:03:04;101769.41;;;12.34;100.00
49216;BME280;45943;53.148;8.204;2023-02-21T09:05:30;101769.53;;;12.33;100.00
49216;BME280;45943;53.148;8.204;2023-02-21T09:07:58;101767.94;;;12.30;100.00
49216;BME280;45943;53.148;8.204;2023-02-21T09:10:29;101758.81;;;12.20;100.00
49216;BME280;45943;53.148;8.204;2023-02-21T09:12:59;101761.25;;;12.23;100.00
49216;BME280;45943;53.148;8.204;2023-02-21T09:15:25;101770.63;;;12.30;100.00
49216;BME280;45943;53.148;8.204;2023-02-21T09:17:51;101766.94;;;12.31;100.00
49216;BME280;45943;53.148;8.204;2023-02-21T09:20:23;101766.72;;;12.34;100.00
49216;BME280;45943;53.148;8.204;2023-02-21T09:22:50;101772.97;;;12.35;100.00
49216;BME280;45943;53.148;8.204;2023-02-21T09:25:18;101773.38;;;12.42;100.00
49216;BME280;45943;53.148;8.204;2023-02-21T09:27:48;101774.00;;;12.45;100.00
49216;BME280;45943;53.148;8.204;2023-02-21T09:30:15;101772.16;;;12.46;100.00
49216;BME280;45943;53.148;8.204;2023-02-21T09:32:43;101768.63;;;12.45;100.00
49216;BME280;45943;53.148;8.204;2023-02-21T09:35:09;101772.28;;;12.44;100.00
49216;BME280;45943;53.148;8.204;2023-02-21T09:37:39;101774.66;;;12.36;100.00
49216;BME280;45943;53.148;8.204;2023-02-21T09:40:10;101772.81;;;12.49;100.00
49216;BME280;45943;53.148;8.204;2023-02-21T09:42:49;101774.28;;;12.53;100.00
49216;BME280;45943;53.148;8.204;2023-02-21T09:45:17;101767.94;;;12.54;100.00
49216;BME280;45943;53.148;8.204;2023-02-21T09:47:50;101773.69;;;12.50;100.00
49216;BME280;45943;53.148;8.204;2023-02-21T09:50:20;101776.44;;;12.61;100.00
49216;BME280;45943;53.148;8.204;2023-02-21T09:52:52;101780.47;;;12.67;100.00
49216;BME280;45943;53.148;8.204;2023-02-21T09:55:35;101777.91;;;12.65;100.00
49216;BME280;45943;53.148;8.204;2023-02-21T09:58:09;101778.66;;;12.67;100.00
49216;BME280;45943;53.148;8.204;2023-02-21T10:00:37;101780.66;;;12.76;100.00
49216;BME280;45943;53.148;8.204;2023-02-21T10:05:53;101777.09;;;12.76;100.00
49216;BME280;45943;53.148;8.204;2023-02-21T10:08:39;101776.13;;;12.77;100.00
49216;BME280;45943;53.148;8.204;2023-02-21T10:11:37;101779.06;;;12.74;100.00
49216;BME280;45943;53.148;8.204;2023-02-21T10:17:13;101787.00;;;12.75;100.00
49216;BME280;45943;53.148;8.204;2023-02-21T10:19:47;101788.53;;;12.79;100.00
49216;BME280;45943;53.148;8.204;2023-02-21T10:22:19;101778.25;;;12.84;100.00
49216;BME280;45943;53.148;8.204;2023-02-21T10:24:50;101786.44;;;12.83;100.00
49216;BME280;45943;53.148;8.204;2023-02-21T10:27:17;101779.47;;;12.80;100.00
49216;BME280;45943;53.148;8.204;2023-02-21T10:29:48;101786.56;;;12.81;100.00
49216;BME280;45943;53.148;8.204;2023-02-21T10:32:17;101787.66;;;12.79;100.00
49216;BME280;45943;53.148;8.204;2023-02-21T10:34:44;101796.38;;;12.82;100.00
49216;BME280;45943;53.148;8.204;2023-02-21T10:37:21;101804.31;;;12.84;100.00
49216;BME280;45943;53.148;8.204;2023-02-21T10:40:50;101799.28;;;12.79;100.00
49216;BME280;45943;53.148;8.204;2023-02-21T10:43:38;101798.81;;;12.85;100.00
49216;BME280;45943;53.148;8.204;2023-02-21T10:48:35;101804.31;;;12.84;100.00
49216;BME280;45943;53.148;8.204;2023-02-21T10:51:04;101806.38;;;12.80;100.00
49216;BME280;45943;53.148;8.204;2023-02-21T10:53:32;101805.06;;;12.86;100.00
49216;BME280;45943;53.148;8.204;2023-02-21T10:58:56;101810.41;;;12.99;100.00
49216;BME280;45943;53.148;8.204;2023-02-21T11:03:52;101818.00;;;13.05;100.00
49216;BME280;45943;53.148;8.204;2023-02-21T11:08:56;101807.34;;;13.03;100.00
49216;BME280;45943;53.148;8.204;2023-02-21T11:14:33;101806.03;;;13.09;100.00
49216;BME280;45943;53.148;8.204;2023-02-21T11:20:20;101806.19;;;13.18;100.00
49216;BME280;45943;53.148;8.204;2023-02-21T11:27:36;101809.88;;;13.17;100.00
49216;BME280;45943;53.148;8.204;2023-02-21T11:30:09;101806.53;;;13.14;100.00
49216;BME280;45943;53.148;8.204;2023-02-21T11:32:40;101806.41;;;13.15;100.00
49216;BME280;45943;53.148;8.204;2023-02-21T11:37:46;101806.19;;;13.18;100.00
49216;BME280;45943;53.148;8.204;2023-02-21T11:43:21;101801.16;;;13.14;100.00
49216;BME280;45943;53.148;8.204;2023-02-21T11:46:01;101800.47;;;13.23;100.00
49216;BME280;45943;53.148;8.204;2023-02-21T11:51:45;101796.44;;;13.05;100.00
49216;BME280;45943;53.148;8.204;2023-02-21T11:54:24;101803.72;;;13.15;100.00
49216;BME280;45943;53.148;8.204;2023-02-21T11:57:03;101804.88;;;13.24;100.00
49216;BME280;45943;53.148;8.204;2023-02-21T12:05:46;101801.38;;;13.35;100.00
49216;BME280;45943;53.148;8.204;2023-02-21T12:13:50;101794.41;;;13.43;100.00
49216;BME280;45943;53.148;8.204;2023-02-21T12:21:41;101791.38;;;13.48;100.00
49216;BME280;45943;53.148;8.204;2023-02-21T12:24:36;101776.91;;;13.49;100.00
49216;BME280;45943;53.148;8.204;2023-02-21T12:36:38;101767.72;;;13.52;100.00
49216;BME280;45943;53.148;8.204;2023-02-21T12:42:56;101770.81;;;13.58;100.00
49216;BME280;45943;53.148;8.204;2023-02-21T12:45:53;101774.38;;;13.59;100.00
49216;BME280;45943;53.148;8.204;2023-02-21T12:50:51;101772.03;;;13.65;100.00
49216;BME280;45943;53.148;8.204;2023-02-21T12:56:22;101768.72;;;13.62;100.00
49216;BME280;45943;53.148;8.204;2023-02-21T12:58:54;101766.28;;;13.59;100.00
49216;BME280;45943;53.148;8.204;2023-02-21T13:01:33;101764.31;;;13.61;100.00
49216;BME280;45943;53.148;8.204;2023-02-21T13:04:14;101763.59;;;13.59;100.00
49216;BME280;45943;53.148;8.204;2023-02-21T13:10:14;101759.78;;;13.61;100.00
49216;BME280;45943;53.148;8.204;2023-02-21T13:12:27;101766.53;;;13.67;100.00
49216;BME280;45943;53.148;8.204;2023-02-21T13:15:12;101759.19;;;13.58;100.00
49216;BME280;45943;53.148;8.204;2023-02-21T13:17:42;101768.97;;;13.47;100.00
49216;BME280;45943;53.148;8.204;2023-02-21T13:20:15;101759.66;;;13.52;100.00
49216;BME280;45943;53.148;8.204;2023-02-21T13:28:51;101751.03;;;13.46;100.00
49216;BME280;45943;53.148;8.204;2023-02-21T13:31:23;101749.84;;;13.51;100.00
49216;BME280;45943;53.148;8.204;2023-02-21T13:33:51;101750.31;;;13.56;100.00
49216;BME280;45943;53.148;8.204;2023-02-21T13:36:31;101753.16;;;13.54;100.00
49216;BME280;45943;53.148;8.204;2023-02-21T13:39:26;101740.03;;;13.49;100.00
49216;BME280;45943;53.148;8.204;2023-02-21T13:42:02;101744.94;;;13.56;100.00
49216;BME280;45943;53.148;8.204;2023-02-21T13:44:33;101744.06;;;13.55;100.00
49216;BME280;45943;53.148;8.204;2023-02-21T13:47:15;101742.00;;;13.59;100.00
49216;BME280;45943;53.148;8.204;2023-02-21T13:49:56;101736.25;;;13.52;100.00
49216;BME280;45943;53.148;8.204;2023-02-21T13:52:25;101732.19;;;13.46;100.00
49216;BME280;45943;53.148;8.204;2023-02-21T13:57:48;101730.13;;;13.50;100.00
49216;BME280;45943;53.148;8.204;2023-02-21T14:03:09;101730.97;;;13.51;100.00
49216;BME280;45943;53.148;8.204;2023-02-21T14:10:48;101726.31;;;13.53;100.00
49216;BME280;45943;53.148;8.204;2023-02-21T14:13:30;101726.06;;;13.56;100.00
49216;BME280;45943;53.148;8.204;2023-02-21T14:16:08;101717.75;;;13.59;100.00
49216;BME280;45943;53.148;8.204;2023-02-21T14:21:09;101725.34;;;13.54;100.00
49216;BME280;45943;53.148;8.204;2023-02-21T14:24:03;101722.38;;;13.57;100.00
49216;BME280;45943;53.148;8.204;2023-02-21T14:29:33;101724.22;;;13.56;100.00
49216;BME280;45943;53.148;8.204;2023-02-21T14:39:58;101730.13;;;13.50;100.00
49216;BME280;45943;53.148;8.204;2023-02-21T14:50:23;101718.94;;;13.43;100.00
49216;BME280;45943;53.148;8.204;2023-02-21T14:55:28;101718.09;;;13.54;100.00
49216;BME280;45943;53.148;8.204;2023-02-21T14:58:18;101716.66;;;13.50;100.00
49216;BME280;45943;53.148;8.204;2023-02-21T15:00:58;101721.44;;;13.58;100.00
49216;BME280;45943;53.148;8.204;2023-02-21T15:03:53;101706.13;;;13.58;100.00
49216;BME280;45943;53.148;8.204;2023-02-21T15:10:09;101713.94;;;13.61;100.00
49216;BME280;45943;53.148;8.204;2023-02-21T15:12:49;101703.75;;;13.65;100.00
49216;BME280;45943;53.148;8.204;2023-02-21T15:15:22;101716.53;;;13.74;100.00
49216;BME280;45943;53.148;8.204;2023-02-21T15:17:58;101710.53;;;13.70;100.00
49216;BME280;45943;53.148;8.204;2023-02-21T15:20:35;101718.00;;;13.67;100.00
49216;BME280;45943;53.148;8.204;2023-02-21T15:23:10;101719.81;;;13.66;100.00
49216;BME280;45943;53.148;8.204;2023-02-21T15:25:39;101717.63;;;13.60;100.00
49216;BME280;45943;53.148;8.204;2023-02-21T15:28:14;101724.47;;;13.64;100.00
49216;BME280;45943;53.148;8.204;2023-02-21T15:30:54;101722.16;;;13.60;100.00
49216;BME280;45943;53.148;8.204;2023-02-21T15:33:20;101718.84;;;13.56;100.00
49216;BME280;45943;53.148;8.204;2023-02-21T15:35:49;101720.31;;;13.49;100.00